createdAt,value
2019-03-11T00:00:42.598Z,28.40
2019-03-11T00:03:13.228Z,32.60
2019-03-11T00:05:43.756Z,26.35
2019-03-11T00:08:14.203Z,25.68
2019-03-11T00:10:45.326Z,27.02
2019-03-11T00:13:16.361Z,31.73
2019-03-11T00:15:46.989Z,25.97
2019-03-11T00:18:18.032Z,26.93
2019-03-11T00:20:48.664Z,25.08
2019-03-11T00:23:19.248Z,18.00
2019-03-11T00:25:49.482Z,20.88
2019-03-11T00:28:20.761Z,20.40
2019-03-11T00:30:51.588Z,19.10
2019-03-11T00:33:22.628Z,15.60
2019-03-11T00:35:53.157Z,14.70
2019-03-11T00:38:23.682Z,15.45
2019-03-11T00:40:54.112Z,12.13
2019-03-11T00:43:24.637Z,12.05
2019-03-11T00:45:55.155Z,11.97
2019-03-11T00:48:26.850Z,15.35
2019-03-11T00:50:57.145Z,11.00
2019-03-11T00:53:27.573Z,13.18
2019-03-11T00:55:57.887Z,9.18
2019-03-11T00:58:28.454Z,12.18
2019-03-11T01:00:59.518Z,10.25
2019-03-11T01:03:30.910Z,10.50
2019-03-11T01:06:01.130Z,16.52
2019-03-11T01:08:31.660Z,15.68
2019-03-11T01:11:02.290Z,16.12
2019-03-11T01:13:33.647Z,10.65
2019-03-11T01:16:05.093Z,11.30
2019-03-11T01:18:35.818Z,13.62
2019-03-11T01:21:07.802Z,18.42
2019-03-11T01:23:39.431Z,20.50
2019-03-11T01:26:09.958Z,17.70
2019-03-11T01:28:40.482Z,20.30
2019-03-11T01:31:11.835Z,23.90
2019-03-11T01:33:42.152Z,20.45
2019-03-11T01:36:13.298Z,25.40
2019-03-11T01:38:44.848Z,23.70
2019-03-11T01:41:15.483Z,33.15
2019-03-11T01:43:47.339Z,30.92
2019-03-11T01:46:18.276Z,30.90
2019-03-11T01:48:51.245Z,35.98
2019-03-11T01:51:21.435Z,29.87
2019-03-11T01:53:52.142Z,28.98
2019-03-11T01:56:22.642Z,28.85
2019-03-11T01:58:55.115Z,23.50
2019-03-11T02:01:26.083Z,15.78
2019-03-11T02:03:57.290Z,24.35
2019-03-11T02:06:29.561Z,22.00
2019-03-11T02:09:01.531Z,22.13
2019-03-11T02:11:31.842Z,19.40
2019-03-11T02:14:02.883Z,22.00
2019-03-11T02:16:33.514Z,20.12
2019-03-11T02:19:05.480Z,15.28
2019-03-11T02:21:36.113Z,18.70
2019-03-11T02:24:06.637Z,18.40
2019-03-11T02:26:37.261Z,14.30
2019-03-11T02:29:08.106Z,14.83
2019-03-11T02:31:38.621Z,17.52
2019-03-11T02:34:11.506Z,13.05
2019-03-11T02:36:42.166Z,12.43
2019-03-11T02:39:12.658Z,12.98
2019-03-11T02:41:43.190Z,12.10
2019-03-11T02:44:13.723Z,10.30
2019-03-11T02:46:44.255Z,10.50
2019-03-11T02:49:14.471Z,8.95
2019-03-11T02:51:44.983Z,9.28
2019-03-11T02:54:15.972Z,8.05
2019-03-11T02:56:47.251Z,10.28
2019-03-11T02:59:18.726Z,6.97
2019-03-11T03:01:50.388Z,10.53
2019-03-11T03:04:22.959Z,7.20
2019-03-11T03:06:53.590Z,7.20
2019-03-11T03:09:24.114Z,5.00
2019-03-11T03:11:55.325Z,8.83
2019-03-11T03:14:27.428Z,12.28
2019-03-11T03:16:58.050Z,10.35
2019-03-11T03:19:29.235Z,9.55
2019-03-11T03:22:00.242Z,7.95
2019-03-11T03:24:30.468Z,14.93
2019-03-11T03:27:01.995Z,10.10
2019-03-11T03:29:33.254Z,15.75
2019-03-11T03:32:03.962Z,14.23
2019-03-11T03:34:35.732Z,10.65
2019-03-11T03:37:06.377Z,11.53
2019-03-11T03:39:36.914Z,12.95
2019-03-11T03:42:08.038Z,13.22
2019-03-11T03:44:38.224Z,16.32
2019-03-11T03:47:08.685Z,18.65
2019-03-11T03:49:39.316Z,21.00
2019-03-11T03:52:09.847Z,23.07
2019-03-11T03:54:41.040Z,27.75
2019-03-11T03:57:13.560Z,24.40
2019-03-11T03:59:44.499Z,18.15
2019-03-11T04:02:15.494Z,15.60
2019-03-11T04:04:45.765Z,13.28
2019-03-11T04:07:18.639Z,11.65
2019-03-11T04:09:49.073Z,16.90
2019-03-11T04:12:21.026Z,13.55
2019-03-11T04:14:51.880Z,14.20
2019-03-11T04:17:22.697Z,13.45
2019-03-11T04:19:53.944Z,15.15
2019-03-11T04:22:24.145Z,13.03
2019-03-11T04:24:54.793Z,11.73
2019-03-11T04:27:25.325Z,15.83
2019-03-11T04:29:56.457Z,14.68
2019-03-11T04:32:27.091Z,21.95
2019-03-11T04:34:57.717Z,14.78
2019-03-11T04:37:28.656Z,13.20
2019-03-11T04:40:00.440Z,17.07
2019-03-11T04:42:32.068Z,18.12
2019-03-11T04:45:03.107Z,15.75
2019-03-11T04:47:33.591Z,22.75
2019-03-11T04:50:06.354Z,18.17
2019-03-11T04:52:36.488Z,22.17
2019-03-11T04:55:10.017Z,23.45
2019-03-11T04:57:42.406Z,23.18
2019-03-11T05:00:21.477Z,22.67
2019-03-11T05:02:53.872Z,28.92
2019-03-11T05:05:25.253Z,29.67
2019-03-11T05:07:56.597Z,34.25
2019-03-11T05:10:27.277Z,27.90
2019-03-11T05:12:58.057Z,17.57
2019-03-11T05:15:28.994Z,16.97
2019-03-11T05:17:59.626Z,19.85
2019-03-11T05:20:31.078Z,17.35
2019-03-11T05:23:01.299Z,13.88
2019-03-11T05:25:31.823Z,12.18
2019-03-11T05:28:04.398Z,14.87
2019-03-11T05:30:35.209Z,12.55
2019-03-11T05:33:05.871Z,16.77
2019-03-11T05:35:36.390Z,17.50
2019-03-11T05:38:07.644Z,11.73
2019-03-11T05:40:39.612Z,12.33
2019-03-11T05:43:12.429Z,12.60
2019-03-11T05:45:42.939Z,11.63
2019-03-11T05:48:15.684Z,9.85
2019-03-11T05:50:46.725Z,11.08
2019-03-11T05:53:17.666Z,11.03
2019-03-11T05:55:49.885Z,13.60
2019-03-11T05:58:20.768Z,12.28
2019-03-11T06:00:52.118Z,11.80
2019-03-11T06:03:22.437Z,9.88
2019-03-11T06:05:55.680Z,19.10
2019-03-11T06:08:26.567Z,14.85
2019-03-11T06:10:57.499Z,12.37
2019-03-11T06:13:35.914Z,15.58
2019-03-11T06:16:02.847Z,13.38
2019-03-11T06:18:37.688Z,10.82
2019-03-11T06:21:26.955Z,19.70
2019-03-11T06:23:58.202Z,16.42
2019-03-11T06:26:28.825Z,14.93
2019-03-11T06:28:59.350Z,14.23
2019-03-11T06:31:29.984Z,12.95
2019-03-11T06:34:03.481Z,16.50
2019-03-11T06:36:36.279Z,12.40
2019-03-11T06:39:07.623Z,12.10
2019-03-11T06:41:39.560Z,14.85
2019-03-11T06:44:10.107Z,27.77
2019-03-11T06:46:42.066Z,20.80
2019-03-11T06:49:14.224Z,22.07
2019-03-11T06:51:45.775Z,20.05
2019-03-11T06:54:17.024Z,20.57
2019-03-11T06:56:47.670Z,18.27
2019-03-11T06:59:18.894Z,21.07
2019-03-11T07:01:49.527Z,15.60
2019-03-11T07:04:20.565Z,22.62
2019-03-11T07:06:51.190Z,28.07
2019-03-11T07:09:21.843Z,27.62
2019-03-11T07:11:52.659Z,18.98
2019-03-11T07:14:22.779Z,17.52
2019-03-11T07:16:53.206Z,8.75
2019-03-11T07:19:23.754Z,18.32
2019-03-11T07:21:54.361Z,14.98
2019-03-11T07:24:26.303Z,15.68
2019-03-11T07:27:00.444Z,14.60
2019-03-11T07:29:31.678Z,10.80
2019-03-11T07:32:02.620Z,13.22
2019-03-11T07:34:32.834Z,13.13
2019-03-11T07:37:05.880Z,9.10
2019-03-11T07:39:36.449Z,17.37
2019-03-11T07:42:07.286Z,22.32
2019-03-11T07:44:37.886Z,12.53
2019-03-11T07:47:08.544Z,14.93
2019-03-11T07:49:39.687Z,12.95
2019-03-11T07:52:10.328Z,19.27
2019-03-11T07:54:40.942Z,11.73
2019-03-11T07:57:12.395Z,11.57
2019-03-11T07:59:42.735Z,13.83
2019-03-11T08:02:13.350Z,21.05
2019-03-11T08:04:44.112Z,13.48
2019-03-11T08:07:15.229Z,24.40
2019-03-11T08:09:46.163Z,18.20
2019-03-11T08:12:17.203Z,14.00
2019-03-11T08:14:47.528Z,17.65
2019-03-11T08:17:19.488Z,12.98
2019-03-11T08:19:55.304Z,19.77
2019-03-11T08:22:25.879Z,13.48
2019-03-11T08:24:56.919Z,13.65
2019-03-11T08:27:31.304Z,19.70
2019-03-11T08:30:01.504Z,18.42
2019-03-11T08:32:33.312Z,26.25
2019-03-11T08:35:06.072Z,19.37
2019-03-11T08:37:38.859Z,23.62
2019-03-11T08:40:16.866Z,18.42
2019-03-11T08:42:47.080Z,17.27
2019-03-11T08:45:18.563Z,25.10
2019-03-11T08:47:48.851Z,17.40
2019-03-11T08:50:27.487Z,10.48
2019-03-11T08:52:58.206Z,18.45
2019-03-11T08:55:29.104Z,14.85
2019-03-11T08:57:59.877Z,15.20
2019-03-11T09:00:30.409Z,11.88
2019-03-11T09:03:01.443Z,20.15
2019-03-11T09:05:33.331Z,16.57
2019-03-11T09:08:03.734Z,17.55
2019-03-11T09:10:35.793Z,18.42
2019-03-11T09:13:06.391Z,15.88
2019-03-11T09:15:38.188Z,14.87
2019-03-11T09:18:10.118Z,16.75
2019-03-11T09:20:42.299Z,12.53
2019-03-11T09:23:14.576Z,18.92
2019-03-11T09:25:46.435Z,16.95
2019-03-11T09:28:17.199Z,14.43
2019-03-11T09:30:51.175Z,23.70
2019-03-11T09:33:21.527Z,13.25
2019-03-11T09:35:52.032Z,14.35
2019-03-11T09:38:22.658Z,18.23
2019-03-11T09:40:53.306Z,16.37
2019-03-11T09:43:27.069Z,15.08
2019-03-11T09:45:57.517Z,16.45
2019-03-11T09:48:28.868Z,17.70
2019-03-11T09:50:59.612Z,16.12
2019-03-11T09:53:30.081Z,25.00
2019-03-11T09:56:00.758Z,16.90
2019-03-11T09:58:31.586Z,11.45
2019-03-11T10:01:03.432Z,20.00
2019-03-11T10:03:33.775Z,15.05
2019-03-11T10:06:04.805Z,17.75
2019-03-11T10:08:36.457Z,16.77
2019-03-11T10:11:06.989Z,13.72
2019-03-11T10:13:37.622Z,18.48
2019-03-11T10:16:09.125Z,16.85
2019-03-11T10:18:39.522Z,22.13
2019-03-11T10:21:11.046Z,17.10
2019-03-11T10:23:41.387Z,15.80
2019-03-11T10:26:11.997Z,17.42
2019-03-11T10:28:44.550Z,18.05
2019-03-11T10:31:15.625Z,16.50
2019-03-11T10:33:46.158Z,15.25
2019-03-11T10:36:18.318Z,17.25
2019-03-11T10:38:48.838Z,18.60
2019-03-11T10:41:20.592Z,18.70
2019-03-11T10:43:51.323Z,14.98
2019-03-11T10:46:21.862Z,34.38
2019-03-11T10:48:52.918Z,20.57
2019-03-11T10:51:24.279Z,19.42
2019-03-11T10:53:56.199Z,17.92
2019-03-11T10:56:26.316Z,22.80
2019-03-11T10:58:57.767Z,22.60
2019-03-11T11:01:27.986Z,23.40
2019-03-11T11:03:59.227Z,28.47
2019-03-11T11:06:29.694Z,23.55
2019-03-11T11:09:00.205Z,20.57
2019-03-11T11:11:30.716Z,16.45
2019-03-11T11:14:02.382Z,19.92
2019-03-11T11:16:32.849Z,22.67
2019-03-11T11:19:03.521Z,24.23
2019-03-11T11:21:34.464Z,26.35
2019-03-11T11:24:05.300Z,19.27
2019-03-11T11:26:36.039Z,26.12
2019-03-11T11:29:06.981Z,21.02
2019-03-11T11:31:38.320Z,24.35
2019-03-11T11:34:08.706Z,15.13
2019-03-11T11:36:39.159Z,22.55
2019-03-11T11:39:11.329Z,23.35
2019-03-11T11:41:41.825Z,17.77
2019-03-11T11:44:12.905Z,16.05
2019-03-11T11:46:44.759Z,20.12
2019-03-11T11:49:16.076Z,14.05
2019-03-11T11:51:46.673Z,17.55
2019-03-11T11:54:17.157Z,18.48
2019-03-11T11:56:47.989Z,24.20
2019-03-11T11:59:19.339Z,22.35
2019-03-11T12:02:02.980Z,19.65
2019-03-11T12:04:24.604Z,13.65
2019-03-11T12:06:55.226Z,17.82
2019-03-11T12:09:26.672Z,23.67
2019-03-11T12:11:59.808Z,17.80
2019-03-11T12:14:32.332Z,14.35
2019-03-11T12:17:02.724Z,21.73
2019-03-11T12:19:34.221Z,12.58
2019-03-11T12:22:06.878Z,15.30
2019-03-11T12:24:38.656Z,10.93
2019-03-11T12:27:12.449Z,13.13
2019-03-11T12:29:43.087Z,10.93
2019-03-11T12:32:14.098Z,16.62
2019-03-11T12:34:45.057Z,14.20
2019-03-11T12:37:16.493Z,17.75
2019-03-11T12:39:46.841Z,18.60
2019-03-11T12:42:17.359Z,11.80
2019-03-11T12:44:49.535Z,14.30
2019-03-11T12:47:21.751Z,22.13
2019-03-11T12:49:52.525Z,19.00
2019-03-11T12:52:23.767Z,9.68
2019-03-11T12:54:57.476Z,7.65
2019-03-11T12:57:28.109Z,14.15
2019-03-11T12:59:59.237Z,8.93
2019-03-11T13:02:29.536Z,7.40
2019-03-11T13:05:03.789Z,11.85
2019-03-11T13:07:34.407Z,7.97
2019-03-11T13:10:08.551Z,10.20
2019-03-11T13:12:42.858Z,9.85
2019-03-11T13:15:14.590Z,9.78
2019-03-11T13:17:45.840Z,16.02
2019-03-11T13:20:31.789Z,7.70
2019-03-11T13:23:02.364Z,8.90
2019-03-11T13:25:33.920Z,7.92
2019-03-11T13:28:05.359Z,8.13
2019-03-11T13:30:36.439Z,7.00
2019-03-11T13:33:08.375Z,11.40
2019-03-11T13:35:39.101Z,12.13
2019-03-11T13:38:09.725Z,9.10
2019-03-11T13:40:41.723Z,13.98
2019-03-11T13:43:12.934Z,9.00
2019-03-11T13:45:46.218Z,5.00
2019-03-11T13:48:20.558Z,5.03
2019-03-11T13:50:50.761Z,10.05
2019-03-11T13:53:24.698Z,5.90
2019-03-11T13:55:55.905Z,7.72
2019-03-11T13:58:27.075Z,4.22
2019-03-11T14:00:57.577Z,6.70
2019-03-11T14:03:29.213Z,6.87
2019-03-11T14:05:59.452Z,7.12
2019-03-11T14:08:32.524Z,5.72
2019-03-11T14:11:06.815Z,8.93
2019-03-11T14:13:38.407Z,9.88
2019-03-11T14:16:11.206Z,6.15
2019-03-11T14:18:44.610Z,12.53
2019-03-11T14:21:25.346Z,7.83
2019-03-11T14:23:50.042Z,4.45
2019-03-11T14:26:20.674Z,7.12
2019-03-11T14:28:51.793Z,3.25
2019-03-11T14:31:23.884Z,3.87
2019-03-11T14:33:54.224Z,8.60
2019-03-11T14:36:25.751Z,4.30
2019-03-11T14:38:57.205Z,3.62
2019-03-11T14:41:29.510Z,6.05
2019-03-11T14:44:01.861Z,4.03
2019-03-11T14:46:33.868Z,4.40
2019-03-11T14:49:05.106Z,13.40
2019-03-11T14:51:35.991Z,7.00
2019-03-11T14:54:08.274Z,22.35
2019-03-11T14:56:39.413Z,27.80
2019-03-11T14:59:12.890Z,17.30
2019-03-11T15:01:44.343Z,15.30
2019-03-11T15:04:16.206Z,10.88
2019-03-11T15:06:51.457Z,21.23
2019-03-11T15:09:26.083Z,24.77
2019-03-11T15:11:58.443Z,24.80
2019-03-11T15:14:33.728Z,25.12
2019-03-11T15:19:36.180Z,32.78
2019-03-11T15:22:08.033Z,29.63
2019-03-11T15:24:39.778Z,24.92
2019-03-11T15:27:10.561Z,10.50
2019-03-11T15:29:42.380Z,10.90
2019-03-11T15:32:14.243Z,9.20
2019-03-11T15:34:47.217Z,23.30
2019-03-11T15:37:18.255Z,11.40
2019-03-11T15:39:50.401Z,13.80
2019-03-11T15:42:20.941Z,20.80
2019-03-11T15:44:53.317Z,23.52
2019-03-11T15:47:25.173Z,17.95
2019-03-11T15:49:55.866Z,17.60
2019-03-11T15:52:27.272Z,18.42
2019-03-11T15:54:58.706Z,16.30
2019-03-11T15:57:38.749Z,20.72
2019-03-11T16:00:01.502Z,16.70
2019-03-11T16:02:32.234Z,25.90
2019-03-11T16:05:03.371Z,21.27
2019-03-11T16:07:33.919Z,24.20
2019-03-11T16:10:16.401Z,10.28
2019-03-11T16:12:39.060Z,20.55
2019-03-11T16:15:11.077Z,24.75
2019-03-11T16:17:41.436Z,25.30
2019-03-11T16:20:20.363Z,29.77
2019-03-11T16:22:50.490Z,10.75
2019-03-11T16:25:21.118Z,27.50
2019-03-11T16:27:51.635Z,11.22
2019-03-11T16:30:25.851Z,18.52
2019-03-11T16:32:59.960Z,24.95
2019-03-11T16:35:28.960Z,19.95
2019-03-11T16:37:59.279Z,25.43
2019-03-11T16:40:29.702Z,31.05
2019-03-11T16:43:01.067Z,29.67
2019-03-11T16:45:33.725Z,12.95
2019-03-11T16:48:04.461Z,19.55
2019-03-11T16:50:35.205Z,18.20
2019-03-11T16:53:05.823Z,10.98
2019-03-11T16:55:53.046Z,18.05
2019-03-11T16:58:23.467Z,21.02
2019-03-11T17:00:55.572Z,14.90
2019-03-11T17:03:26.259Z,14.63
2019-03-11T17:05:56.889Z,15.43
2019-03-11T17:08:29.777Z,28.35
2019-03-11T17:11:00.406Z,19.60
2019-03-11T17:13:31.759Z,12.18
2019-03-11T17:16:02.813Z,10.28
2019-03-11T17:18:34.346Z,15.03
2019-03-11T17:21:05.690Z,15.32
2019-03-11T17:23:35.914Z,15.95
2019-03-11T17:26:06.434Z,22.02
2019-03-11T17:28:37.183Z,19.70
2019-03-11T17:31:07.747Z,18.87
2019-03-11T17:33:42.837Z,21.87
2019-03-11T17:36:13.358Z,25.72
2019-03-11T17:38:45.423Z,14.30
2019-03-11T17:41:16.976Z,7.53
2019-03-11T17:43:47.404Z,10.25
2019-03-11T17:46:18.864Z,13.50
2019-03-11T17:48:49.081Z,8.40
2019-03-11T17:51:19.599Z,15.45
2019-03-11T17:53:51.967Z,14.47
2019-03-11T17:56:22.195Z,5.67
2019-03-11T17:58:52.830Z,5.40
2019-03-11T18:01:23.241Z,6.45
2019-03-11T18:03:54.641Z,17.30
2019-03-11T18:06:26.449Z,9.78
2019-03-11T18:08:56.990Z,9.30
2019-03-11T18:11:27.611Z,7.65
2019-03-11T18:13:57.828Z,6.42
2019-03-11T18:16:28.356Z,17.25
2019-03-11T18:19:00.319Z,18.00
2019-03-11T18:21:30.661Z,15.72
2019-03-11T18:24:01.169Z,11.33
2019-03-11T18:26:31.708Z,29.87
2019-03-11T18:29:02.137Z,24.87
2019-03-11T18:31:32.852Z,12.78
2019-03-11T18:34:04.302Z,13.95
2019-03-11T18:36:35.141Z,9.50
2019-03-11T18:39:07.271Z,14.73
2019-03-11T18:41:38.752Z,12.33
2019-03-11T18:44:10.407Z,13.95
2019-03-11T18:46:44.001Z,10.48
2019-03-11T18:49:15.084Z,15.13
2019-03-11T18:51:45.393Z,27.25
2019-03-11T18:54:16.000Z,39.63
2019-03-11T18:56:47.168Z,35.95
2019-03-11T18:59:18.801Z,30.72
2019-03-11T19:01:51.228Z,15.03
2019-03-11T19:04:21.518Z,9.35
2019-03-11T19:06:52.141Z,9.75
2019-03-11T19:09:22.578Z,7.03
2019-03-11T19:11:53.687Z,8.15
2019-03-11T19:14:24.215Z,7.03
2019-03-11T19:16:54.743Z,7.50
2019-03-11T19:19:26.632Z,8.60
2019-03-11T19:21:56.790Z,11.20
2019-03-11T19:24:27.571Z,17.45
2019-03-11T19:26:58.299Z,31.27
2019-03-11T19:29:30.154Z,22.73
2019-03-11T19:32:00.290Z,12.50
2019-03-11T19:34:31.007Z,13.68
2019-03-11T19:37:01.532Z,11.35
2019-03-11T19:39:31.780Z,14.20
2019-03-11T19:42:03.118Z,8.95
2019-03-11T19:44:33.330Z,13.93
2019-03-11T19:47:04.349Z,15.25
2019-03-11T19:49:35.798Z,10.72
2019-03-11T19:52:06.446Z,8.20
2019-03-11T19:54:37.164Z,7.20
2019-03-11T19:57:08.865Z,11.75
2019-03-11T19:59:39.577Z,8.65
2019-03-11T20:02:11.952Z,8.93
2019-03-11T20:04:42.494Z,8.90
2019-03-11T20:07:13.055Z,8.65
2019-03-11T20:09:43.760Z,5.15
2019-03-11T20:12:15.190Z,3.98
2019-03-11T20:14:46.862Z,5.75
2019-03-11T20:17:17.949Z,6.33
2019-03-11T20:19:48.801Z,2.83
2019-03-11T20:22:21.341Z,3.50
2019-03-11T20:24:51.796Z,5.33
2019-03-11T20:27:22.933Z,5.83
2019-03-11T20:29:54.414Z,3.90
2019-03-11T20:32:24.500Z,7.33
2019-03-11T20:34:55.290Z,4.70
2019-03-11T20:37:25.761Z,5.70
2019-03-11T20:39:58.418Z,7.05
2019-03-11T20:42:30.126Z,6.00
2019-03-11T20:45:00.393Z,8.13
2019-03-11T20:47:30.989Z,11.18
2019-03-11T20:50:01.548Z,7.33
2019-03-11T20:52:31.983Z,6.03
2019-03-11T20:55:03.762Z,9.10
2019-03-11T20:57:34.270Z,8.45
2019-03-11T21:00:07.676Z,6.67
2019-03-11T21:02:38.905Z,5.33
2019-03-11T21:05:11.490Z,8.78
2019-03-11T21:07:42.143Z,5.70
2019-03-11T21:10:14.509Z,6.03
2019-03-11T21:12:44.816Z,7.03
2019-03-11T21:15:16.174Z,9.53
2019-03-11T21:17:49.035Z,7.83
2019-03-11T21:20:19.278Z,5.87
2019-03-11T21:22:50.866Z,6.62
2019-03-11T21:25:23.421Z,7.08
2019-03-11T21:27:54.217Z,4.37
2019-03-11T21:30:28.793Z,8.90
2019-03-11T21:32:59.082Z,9.13
2019-03-11T21:35:29.701Z,8.18
2019-03-11T21:38:01.705Z,9.25
2019-03-11T21:40:31.886Z,11.15
2019-03-11T21:43:02.663Z,7.12
2019-03-11T21:45:34.803Z,5.80
2019-03-11T21:48:05.414Z,4.35
2019-03-11T21:50:37.168Z,4.00
2019-03-11T21:53:07.489Z,8.13
2019-03-11T21:55:38.552Z,5.15
2019-03-11T21:58:13.379Z,8.83
2019-03-11T22:03:13.390Z,6.90
2019-03-11T22:05:44.659Z,4.00
2019-03-11T22:08:14.963Z,5.47
2019-03-11T22:10:45.998Z,8.50
2019-03-11T22:13:16.215Z,5.05
2019-03-11T22:15:46.746Z,5.05
2019-03-11T22:18:17.268Z,6.40
2019-03-11T22:20:48.790Z,7.67
2019-03-11T22:23:19.456Z,6.85
2019-03-11T22:25:50.286Z,7.60
2019-03-11T22:28:20.919Z,10.90
2019-03-11T22:30:51.448Z,5.08
2019-03-11T22:33:22.078Z,5.80
2019-03-11T22:35:52.706Z,7.45
2019-03-11T22:38:23.230Z,5.45
2019-03-11T22:40:55.197Z,5.92
2019-03-11T22:43:25.721Z,4.30
2019-03-11T22:45:56.571Z,7.08
2019-03-11T22:48:28.721Z,5.00
2019-03-11T22:50:59.969Z,6.03
2019-03-11T22:53:30.601Z,6.78
2019-03-11T22:56:01.432Z,6.62
2019-03-11T22:58:31.964Z,5.60
2019-03-11T23:01:04.348Z,3.85
2019-03-11T23:03:34.449Z,6.40
2019-03-11T23:06:05.082Z,9.00
2019-03-11T23:08:35.579Z,7.28
2019-03-11T23:11:06.325Z,5.00
2019-03-11T23:13:36.813Z,7.05
2019-03-11T23:16:10.293Z,6.30
2019-03-11T23:18:40.483Z,9.20
2019-03-11T23:21:11.110Z,6.15
2019-03-11T23:23:41.549Z,8.48
2019-03-11T23:26:12.472Z,7.47
2019-03-11T23:28:43.410Z,5.20
2019-03-11T23:31:14.164Z,5.40
2019-03-11T23:33:44.967Z,10.05
2019-03-11T23:36:16.329Z,7.62
2019-03-11T23:38:47.467Z,6.00
2019-03-11T23:41:17.691Z,5.42
2019-03-11T23:43:49.034Z,7.58
2019-03-11T23:46:20.993Z,6.10
2019-03-11T23:48:51.523Z,4.58
2019-03-11T23:51:22.802Z,5.08
2019-03-11T23:53:52.889Z,7.60
2019-03-11T23:56:23.406Z,6.85
2019-03-11T23:58:55.359Z,5.92
